createdAt,value
2019-01-18T00:00:12.873Z,83.80
2019-01-18T00:02:39.852Z,83.20
2019-01-18T00:05:06.849Z,82.80
2019-01-18T00:07:33.883Z,82.90
2019-01-18T00:10:00.851Z,82.40
2019-01-18T00:12:28.017Z,82.00
2019-01-18T00:14:55.054Z,81.80
2019-01-18T00:17:23.013Z,80.80
2019-01-18T00:19:50.023Z,80.50
2019-01-18T00:22:16.993Z,80.50
2019-01-18T00:24:43.936Z,80.00
2019-01-18T00:27:10.968Z,79.50
2019-01-18T00:29:37.902Z,79.70
2019-01-18T00:32:04.972Z,80.10
2019-01-18T00:34:32.039Z,80.40
2019-01-18T00:36:58.988Z,80.40
2019-01-18T00:39:25.906Z,80.50
2019-01-18T00:41:52.905Z,81.00
2019-01-18T00:44:19.825Z,81.50
2019-01-18T00:46:46.850Z,82.10
2019-01-18T00:49:13.853Z,82.30
2019-01-18T00:51:40.834Z,82.50
2019-01-18T00:54:07.789Z,83.10
2019-01-18T00:56:34.839Z,83.50
2019-01-18T00:59:01.885Z,84.70
2019-01-18T01:01:28.927Z,85.20
2019-01-18T01:03:55.955Z,86.30
2019-01-18T01:06:31.813Z,87.10
2019-01-18T01:08:58.848Z,88.10
2019-01-18T01:11:25.766Z,88.50
2019-01-18T01:13:52.852Z,89.60
2019-01-18T01:16:19.895Z,89.50
2019-01-18T01:18:46.948Z,90.40
2019-01-18T01:21:13.907Z,90.50
2019-01-18T01:23:40.884Z,90.50
2019-01-18T01:26:07.904Z,90.80
2019-01-18T01:28:34.897Z,90.70
2019-01-18T01:31:01.974Z,90.50
2019-01-18T01:33:28.920Z,90.50
2019-01-18T01:35:55.797Z,90.40
2019-01-18T01:38:22.895Z,90.20
2019-01-18T01:40:49.940Z,90.20
2019-01-18T01:43:17.002Z,90.10
2019-01-18T01:45:43.957Z,90.30
2019-01-18T01:48:10.950Z,90.50
2019-01-18T01:50:37.944Z,90.20
2019-01-18T01:53:05.022Z,89.70
2019-01-18T01:55:32.096Z,89.50
2019-01-18T01:57:59.377Z,89.40
2019-01-18T02:00:27.594Z,89.30
2019-01-18T02:02:54.912Z,89.10
2019-01-18T02:05:22.025Z,89.20
2019-01-18T02:07:48.980Z,89.30
2019-01-18T02:10:16.704Z,88.80
2019-01-18T02:12:43.710Z,89.00
2019-01-18T02:15:13.628Z,88.80
2019-01-18T02:17:40.786Z,88.70
2019-01-18T02:20:10.668Z,89.60
2019-01-18T02:22:37.630Z,88.50
2019-01-18T02:25:05.485Z,88.40
2019-01-18T02:27:32.483Z,87.80
2019-01-18T02:29:59.520Z,87.80
2019-01-18T02:32:26.529Z,87.90
2019-01-18T02:34:53.481Z,87.80
2019-01-18T02:37:20.531Z,87.90
2019-01-18T02:39:47.675Z,87.90
2019-01-18T02:42:14.573Z,87.50
2019-01-18T02:44:41.561Z,87.40
2019-01-18T02:47:08.716Z,87.00
2019-01-18T02:49:35.765Z,87.00
2019-01-18T02:52:02.680Z,86.90
2019-01-18T02:54:29.829Z,87.30
2019-01-18T02:56:56.964Z,87.50
2019-01-18T02:59:23.965Z,87.50
2019-01-18T03:01:50.983Z,88.00
2019-01-18T03:04:19.833Z,88.70
2019-01-18T03:06:46.859Z,88.40
2019-01-18T03:09:13.777Z,88.70
2019-01-18T03:11:40.655Z,88.80
2019-01-18T03:14:07.630Z,89.20
2019-01-18T03:16:34.624Z,89.20
2019-01-18T03:19:01.686Z,89.40
2019-01-18T03:21:28.595Z,90.10
2019-01-18T03:23:55.657Z,90.20
2019-01-18T03:26:22.663Z,90.20
2019-01-18T03:28:49.620Z,90.40
2019-01-18T03:31:16.597Z,90.50
2019-01-18T03:33:43.658Z,90.80
2019-01-18T03:36:10.665Z,91.30
2019-01-18T03:38:37.537Z,92.10
2019-01-18T03:41:04.542Z,93.00
2019-01-18T03:43:31.458Z,93.50
2019-01-18T03:45:58.533Z,93.50
2019-01-18T03:48:25.509Z,93.50
2019-01-18T03:50:52.422Z,93.40
2019-01-18T03:53:19.378Z,92.90
2019-01-18T03:55:46.404Z,92.70
2019-01-18T03:58:13.434Z,92.50
2019-01-18T04:00:40.434Z,92.20
2019-01-18T04:03:07.712Z,92.00
2019-01-18T04:05:34.629Z,92.00
2019-01-18T04:08:01.622Z,91.70
2019-01-18T04:10:28.935Z,91.60
2019-01-18T04:12:55.894Z,91.40
2019-01-18T04:15:23.755Z,91.40
2019-01-18T04:17:50.762Z,91.50
2019-01-18T04:20:19.138Z,91.50
2019-01-18T04:22:46.204Z,91.40
2019-01-18T04:25:15.430Z,91.40
2019-01-18T04:27:42.450Z,91.50
2019-01-18T04:30:12.477Z,91.50
2019-01-18T04:32:39.691Z,91.50
2019-01-18T04:35:06.767Z,91.30
2019-01-18T04:37:33.737Z,91.40
2019-01-18T04:40:00.755Z,91.40
2019-01-18T04:42:27.925Z,91.40
2019-01-18T04:44:54.969Z,91.60
2019-01-18T04:47:21.998Z,91.50
2019-01-18T04:49:49.077Z,91.70
2019-01-18T04:52:15.965Z,91.60
2019-01-18T04:54:42.916Z,91.60
2019-01-18T04:57:09.934Z,91.40
2019-01-18T04:59:36.929Z,91.60
2019-01-18T05:02:04.044Z,91.60
2019-01-18T05:04:32.055Z,91.40
2019-01-18T05:06:59.198Z,91.30
2019-01-18T05:09:26.347Z,90.90
2019-01-18T05:11:53.244Z,90.40
2019-01-18T05:14:20.229Z,89.90
2019-01-18T05:16:47.543Z,89.50
2019-01-18T05:19:14.574Z,89.60
2019-01-18T05:21:41.495Z,89.70
2019-01-18T05:24:08.609Z,89.70
2019-01-18T05:26:35.589Z,89.70
2019-01-18T05:29:02.539Z,89.70
2019-01-18T05:31:29.630Z,89.70
2019-01-18T05:33:56.655Z,89.80
2019-01-18T05:36:23.654Z,89.80
2019-01-18T05:38:50.708Z,89.00
2019-01-18T05:41:17.739Z,86.90
2019-01-18T05:43:44.663Z,86.70
2019-01-18T05:46:11.631Z,87.40
2019-01-18T05:48:38.528Z,86.70
2019-01-18T05:51:05.562Z,87.30
2019-01-18T05:53:32.879Z,88.10
2019-01-18T05:55:59.970Z,88.80
2019-01-18T05:58:26.923Z,89.50
2019-01-18T06:00:55.993Z,89.70
2019-01-18T06:03:23.142Z,90.20
2019-01-18T06:05:50.144Z,90.50
2019-01-18T06:08:17.118Z,90.30
2019-01-18T06:10:44.082Z,90.10
2019-01-18T06:13:11.040Z,90.00
2019-01-18T06:15:38.037Z,90.30
2019-01-18T06:18:05.164Z,91.00
2019-01-18T06:20:32.075Z,91.00
2019-01-18T06:22:59.205Z,90.80
2019-01-18T06:25:26.122Z,90.90
2019-01-18T06:27:53.222Z,91.10
2019-01-18T06:30:20.321Z,91.10
2019-01-18T06:32:47.478Z,91.10
2019-01-18T06:35:14.844Z,91.00
2019-01-18T06:37:42.175Z,90.90
2019-01-18T06:40:10.975Z,91.30
2019-01-18T06:42:37.885Z,91.50
2019-01-18T06:45:06.447Z,91.40
2019-01-18T06:47:33.463Z,91.00
2019-01-18T06:50:00.668Z,91.20
2019-01-18T06:52:27.732Z,91.20
2019-01-18T06:54:55.528Z,91.10
2019-01-18T06:57:22.528Z,90.50
2019-01-18T06:59:49.538Z,90.40
2019-01-18T07:02:16.520Z,90.60
2019-01-18T07:04:43.469Z,91.40
2019-01-18T07:07:10.386Z,91.00
2019-01-18T07:09:37.510Z,90.50
2019-01-18T07:12:04.947Z,90.80
2019-01-18T07:14:32.040Z,90.50
2019-01-18T07:16:59.107Z,90.40
2019-01-18T07:19:26.135Z,90.40
2019-01-18T07:21:53.233Z,90.60
2019-01-18T07:24:20.259Z,91.00
2019-01-18T07:26:47.317Z,90.80
2019-01-18T07:29:14.317Z,90.00
2019-01-18T07:31:41.345Z,89.60
2019-01-18T07:34:08.259Z,90.00
2019-01-18T07:36:35.202Z,90.10
2019-01-18T07:39:04.065Z,90.20
2019-01-18T07:41:31.140Z,90.70
2019-01-18T07:43:58.081Z,90.70
2019-01-18T07:46:25.109Z,91.40
2019-01-18T07:48:54.908Z,91.00
2019-01-18T07:51:21.959Z,90.90
2019-01-18T07:53:49.021Z,90.70
2019-01-18T07:56:16.019Z,90.80
2019-01-18T07:58:43.067Z,90.80
2019-01-18T08:01:10.136Z,90.90
2019-01-18T08:03:37.244Z,90.90
2019-01-18T08:06:04.251Z,90.90
2019-01-18T08:08:31.144Z,90.90
2019-01-18T08:10:58.378Z,90.90
2019-01-18T08:13:25.408Z,91.10
2019-01-18T08:15:52.753Z,91.30
2019-01-18T08:18:19.771Z,91.40
2019-01-18T08:20:46.843Z,91.60
2019-01-18T08:23:13.917Z,91.90
2019-01-18T08:25:40.825Z,92.20
2019-01-18T08:28:07.855Z,91.90
2019-01-18T08:30:34.751Z,91.70
2019-01-18T08:33:01.829Z,91.60
2019-01-18T08:35:29.821Z,91.20
2019-01-18T08:37:56.803Z,90.90
2019-01-18T08:40:28.997Z,90.40
2019-01-18T08:42:55.967Z,89.70
2019-01-18T08:45:25.753Z,89.10
2019-01-18T08:47:52.695Z,88.70
2019-01-18T08:50:19.780Z,88.30
2019-01-18T08:52:46.935Z,88.00
2019-01-18T08:55:13.931Z,86.70
2019-01-18T08:57:40.972Z,86.40
2019-01-18T09:00:11.049Z,86.10
2019-01-18T09:02:38.371Z,83.40
2019-01-18T09:05:08.807Z,84.00
2019-01-18T09:07:35.903Z,84.10
2019-01-18T09:10:03.738Z,84.30
2019-01-18T09:12:30.814Z,84.00
2019-01-18T09:14:57.921Z,83.90
2019-01-18T09:17:24.949Z,84.20
2019-01-18T09:19:52.041Z,84.10
2019-01-18T09:22:19.115Z,83.40
2019-01-18T09:24:46.208Z,82.80
2019-01-18T09:27:13.317Z,82.70
2019-01-18T09:29:40.286Z,82.40
2019-01-18T09:32:07.431Z,82.90
2019-01-18T09:34:34.595Z,82.90
2019-01-18T09:37:01.670Z,83.20
2019-01-18T09:39:28.890Z,83.00
2019-01-18T09:41:55.912Z,82.40
2019-01-18T09:44:23.004Z,81.80
2019-01-18T09:46:49.969Z,81.40
2019-01-18T09:49:16.992Z,81.80
2019-01-18T09:51:44.097Z,81.90
2019-01-18T09:54:11.252Z,81.90
2019-01-18T09:56:38.353Z,82.20
2019-01-18T09:59:05.480Z,82.40
2019-01-18T10:01:32.744Z,81.10
2019-01-18T10:04:00.606Z,79.70
2019-01-18T10:06:27.934Z,78.40
2019-01-18T10:08:55.333Z,78.60
2019-01-18T10:11:22.582Z,78.80
2019-01-18T10:13:49.708Z,78.40
2019-01-18T10:16:16.831Z,77.60
2019-01-18T10:18:43.827Z,75.70
2019-01-18T10:21:10.872Z,74.20
2019-01-18T10:23:38.055Z,74.00
2019-01-18T10:26:05.437Z,73.50
2019-01-18T10:28:32.445Z,72.30
2019-01-18T10:30:59.535Z,72.80
2019-01-18T10:33:26.515Z,72.70
2019-01-18T10:35:53.553Z,74.60
2019-01-18T10:38:20.671Z,71.80
2019-01-18T10:40:47.939Z,70.10
2019-01-18T10:43:15.073Z,70.70
2019-01-18T10:45:42.176Z,71.60
2019-01-18T10:48:09.323Z,72.40
2019-01-18T10:50:36.527Z,72.30
2019-01-18T10:53:03.758Z,73.50
2019-01-18T10:55:31.059Z,74.00
2019-01-18T10:57:58.437Z,74.50
2019-01-18T11:00:27.853Z,74.70
2019-01-18T11:02:55.564Z,74.20
2019-01-18T11:05:24.143Z,73.50
2019-01-18T11:07:51.209Z,72.80
2019-01-18T11:10:18.154Z,72.30
2019-01-18T11:12:45.311Z,72.40
2019-01-18T11:15:14.081Z,72.50
2019-01-18T11:17:41.257Z,72.30
2019-01-18T11:20:32.880Z,72.50
2019-01-18T11:22:59.855Z,72.40
2019-01-18T11:25:31.765Z,72.40
2019-01-18T11:27:56.059Z,72.40
2019-01-18T11:30:23.149Z,75.40
2019-01-18T11:32:50.063Z,72.60
2019-01-18T11:35:17.461Z,72.60
2019-01-18T11:37:44.436Z,74.20
2019-01-18T11:40:16.829Z,72.70
2019-01-18T11:42:43.841Z,73.60
2019-01-18T11:45:11.622Z,72.00
2019-01-18T11:47:38.638Z,73.40
2019-01-18T11:50:09.210Z,71.10
2019-01-18T11:52:36.376Z,71.00
2019-01-18T11:55:04.175Z,68.60
2019-01-18T11:57:31.229Z,68.40
2019-01-18T11:59:58.232Z,68.40
2019-01-18T12:02:26.100Z,68.60
2019-01-18T12:04:53.346Z,67.90
2019-01-18T12:07:20.490Z,67.70
2019-01-18T12:09:49.794Z,67.80
2019-01-18T12:12:16.906Z,67.60
2019-01-18T12:14:43.801Z,65.80
2019-01-18T12:17:10.751Z,65.90
2019-01-18T12:19:37.782Z,65.20
2019-01-18T12:22:04.821Z,64.70
2019-01-18T12:24:32.873Z,63.90
2019-01-18T12:26:59.939Z,63.60
2019-01-18T12:29:26.987Z,63.80
2019-01-18T12:31:54.172Z,63.70
2019-01-18T12:34:21.200Z,63.70
2019-01-18T12:36:48.110Z,65.50
2019-01-18T12:39:15.252Z,64.90
2019-01-18T12:41:42.360Z,65.00
2019-01-18T12:44:09.480Z,65.50
2019-01-18T12:46:36.539Z,63.60
2019-01-18T12:49:03.647Z,63.70
2019-01-18T12:51:30.855Z,62.10
2019-01-18T12:53:57.923Z,62.40
2019-01-18T12:56:24.905Z,62.30
2019-01-18T12:58:51.904Z,62.60
2019-01-18T13:01:19.020Z,62.90
2019-01-18T13:03:46.026Z,62.30
2019-01-18T13:06:13.804Z,62.10
2019-01-18T13:08:40.791Z,63.20
2019-01-18T13:11:07.787Z,61.50
2019-01-18T13:13:34.788Z,61.20
2019-01-18T13:16:17.647Z,60.40
2019-01-18T13:18:48.043Z,58.00
2019-01-18T13:21:15.176Z,56.50
2019-01-18T13:23:42.201Z,57.20
2019-01-18T13:26:09.264Z,59.00
2019-01-18T13:28:36.293Z,59.80
2019-01-18T13:31:03.239Z,59.60
2019-01-18T13:33:30.186Z,60.20
2019-01-18T13:35:57.259Z,59.90
2019-01-18T13:38:24.377Z,59.30
2019-01-18T13:40:51.358Z,58.20
2019-01-18T13:43:18.403Z,58.90
2019-01-18T13:45:45.541Z,59.00
2019-01-18T13:48:12.577Z,59.50
2019-01-18T13:50:39.494Z,58.80
2019-01-18T13:53:06.518Z,59.20
2019-01-18T13:55:33.476Z,59.90
2019-01-18T13:58:00.395Z,60.30
2019-01-18T14:00:27.351Z,59.90
2019-01-18T14:02:54.373Z,60.00
2019-01-18T14:05:21.406Z,60.10
2019-01-18T14:07:48.521Z,59.70
2019-01-18T14:10:21.218Z,61.30
2019-01-18T14:12:48.177Z,62.60
2019-01-18T14:15:17.152Z,61.20
2019-01-18T14:17:45.176Z,60.10
2019-01-18T14:20:12.531Z,59.70
2019-01-18T14:22:39.622Z,59.60
2019-01-18T14:25:07.065Z,59.20
2019-01-18T14:27:34.352Z,59.30
2019-01-18T14:30:01.813Z,59.40
2019-01-18T14:32:29.132Z,59.70
2019-01-18T14:34:56.464Z,60.00
2019-01-18T14:37:23.985Z,59.90
2019-01-18T14:39:50.965Z,60.20
2019-01-18T14:42:17.996Z,59.90
2019-01-18T14:44:45.305Z,59.60
2019-01-18T14:47:12.309Z,59.70
2019-01-18T14:49:39.360Z,61.00
2019-01-18T14:52:06.340Z,61.60
2019-01-18T14:54:33.467Z,62.00
2019-01-18T14:57:00.459Z,62.20
2019-01-18T14:59:27.457Z,62.70
2019-01-18T15:01:54.406Z,63.50
2019-01-18T15:04:21.462Z,63.50
2019-01-18T15:06:48.396Z,63.40
2019-01-18T15:09:15.293Z,63.50
2019-01-18T15:11:42.280Z,63.50
2019-01-18T15:14:09.243Z,64.10
2019-01-18T15:16:36.276Z,64.10
2019-01-18T15:19:03.583Z,64.60
2019-01-18T15:21:30.654Z,65.00
2019-01-18T15:23:57.585Z,65.40
2019-01-18T15:26:24.761Z,65.80
2019-01-18T15:28:51.853Z,65.60
2019-01-18T15:31:18.741Z,65.50
2019-01-18T15:33:45.801Z,65.70
2019-01-18T15:36:12.762Z,65.80
2019-01-18T15:38:39.898Z,65.80
2019-01-18T15:41:06.961Z,66.50
2019-01-18T15:43:33.952Z,66.50
2019-01-18T15:46:00.920Z,66.80
2019-01-18T15:48:27.922Z,67.10
2019-01-18T15:50:54.895Z,67.60
2019-01-18T15:53:21.805Z,67.70
2019-01-18T15:55:48.840Z,67.70
2019-01-18T15:58:15.825Z,68.00
2019-01-18T16:00:44.623Z,68.10
2019-01-18T16:03:16.048Z,68.10
2019-01-18T16:05:42.026Z,67.90
2019-01-18T16:08:10.038Z,68.00
2019-01-18T16:10:37.100Z,68.20
2019-01-18T16:13:04.988Z,68.60
2019-01-18T16:15:44.838Z,69.50
2019-01-18T16:18:13.758Z,70.60
2019-01-18T16:20:40.853Z,71.60
2019-01-18T16:23:07.847Z,71.90
2019-01-18T16:25:34.848Z,71.90
2019-01-18T16:28:01.961Z,72.10
2019-01-18T16:30:28.880Z,72.50
2019-01-18T16:32:55.949Z,73.00
2019-01-18T16:35:23.674Z,74.40
2019-01-18T16:37:50.721Z,75.10
2019-01-18T16:40:20.798Z,76.00
2019-01-18T16:42:52.249Z,75.70
2019-01-18T16:45:19.639Z,76.70
2019-01-18T16:47:46.609Z,77.20
2019-01-18T16:50:13.772Z,77.90
2019-01-18T16:52:40.732Z,78.10
2019-01-18T16:55:08.886Z,77.70
2019-01-18T16:57:35.821Z,77.60
2019-01-18T17:00:06.272Z,78.50
2019-01-18T17:02:33.390Z,78.30
2019-01-18T17:05:00.770Z,78.40
2019-01-18T17:07:27.813Z,78.90
2019-01-18T17:09:55.028Z,77.90
2019-01-18T17:12:22.236Z,78.00
2019-01-18T17:14:49.209Z,77.70
2019-01-18T17:17:16.126Z,77.90
2019-01-18T17:19:43.400Z,78.60
2019-01-18T17:22:10.627Z,77.90
2019-01-18T17:24:37.979Z,77.90
2019-01-18T17:27:05.216Z,77.90
2019-01-18T17:29:32.310Z,79.60
2019-01-18T17:31:59.407Z,79.20
2019-01-18T17:34:26.483Z,79.00
2019-01-18T17:37:12.786Z,78.60
2019-01-18T17:40:35.531Z,79.00
2019-01-18T17:43:38.833Z,80.10
2019-01-18T17:46:53.176Z,80.40
2019-01-18T17:49:47.181Z,81.00
2019-01-18T17:52:52.172Z,82.20
2019-01-18T17:55:40.049Z,82.80
2019-01-18T17:58:47.921Z,83.20
2019-01-18T18:02:02.237Z,82.90
2019-01-18T18:05:10.021Z,83.40
2019-01-18T18:08:15.068Z,83.30
2019-01-18T18:11:35.219Z,83.50
2019-01-18T18:14:23.592Z,84.20
2019-01-18T18:17:35.172Z,84.10
2019-01-18T18:20:24.303Z,83.60
2019-01-18T18:23:20.305Z,84.20
2019-01-18T18:26:02.505Z,83.20
2019-01-18T18:29:02.788Z,83.20
2019-01-18T18:31:46.665Z,83.80
2019-01-18T18:34:35.208Z,84.30
2019-01-18T18:37:36.653Z,84.00
2019-01-18T18:40:18.023Z,84.20
2019-01-18T18:43:11.521Z,83.20
2019-01-18T18:46:09.381Z,82.60
2019-01-18T18:49:18.652Z,82.40
2019-01-18T18:52:34.606Z,82.70
2019-01-18T18:55:28.814Z,83.80
2019-01-18T18:59:05.052Z,84.90
2019-01-18T19:02:01.816Z,85.60
2019-01-18T19:05:08.454Z,85.50
2019-01-18T19:08:29.047Z,86.10
2019-01-18T19:11:49.235Z,85.80
2019-01-18T19:14:58.446Z,86.10
2019-01-18T19:18:13.001Z,87.10
2019-01-18T19:21:17.945Z,87.20
2019-01-18T19:23:57.551Z,87.50
2019-01-18T19:26:56.797Z,87.70
2019-01-18T19:29:40.376Z,87.20
2019-01-18T19:32:39.395Z,86.50
2019-01-18T19:35:54.289Z,86.70
2019-01-18T19:39:12.334Z,85.80
2019-01-18T19:42:07.303Z,86.70
2019-01-18T19:44:48.415Z,86.80
2019-01-18T19:47:31.198Z,87.10
2019-01-18T19:50:36.154Z,86.70
2019-01-18T19:53:18.762Z,86.40
2019-01-18T19:56:08.365Z,87.00
2019-01-18T19:59:14.373Z,86.20
2019-01-18T20:02:10.843Z,86.20
2019-01-18T20:05:20.389Z,86.30
2019-01-18T20:08:41.697Z,86.80
2019-01-18T20:11:23.338Z,86.20
2019-01-18T20:14:16.785Z,86.00
2019-01-18T20:17:24.807Z,85.90
2019-01-18T20:20:25.796Z,86.20
2019-01-18T20:23:20.081Z,85.90
2019-01-18T20:26:07.013Z,86.70
2019-01-18T20:28:42.647Z,86.70
2019-01-18T20:31:40.319Z,87.00
2019-01-18T20:34:30.141Z,86.50
2019-01-18T20:37:11.587Z,85.90
2019-01-18T20:40:26.983Z,85.60
2019-01-18T20:43:39.166Z,86.50
2019-01-18T20:46:44.653Z,86.50
2019-01-18T20:49:49.743Z,86.20
2019-01-18T20:52:40.968Z,86.80
2019-01-18T20:55:49.194Z,86.30
2019-01-18T20:58:46.066Z,87.00
2019-01-18T21:01:48.788Z,86.50
2019-01-18T21:04:51.646Z,86.50
2019-01-18T21:07:45.501Z,88.00
2019-01-18T21:10:53.945Z,88.10
2019-01-18T21:13:44.275Z,87.80
2019-01-18T21:17:05.114Z,88.00
2019-01-18T21:20:13.840Z,88.10
2019-01-18T21:23:28.150Z,87.30
2019-01-18T21:26:34.617Z,88.00
2019-01-18T21:29:38.600Z,87.90
2019-01-18T21:32:50.307Z,88.50
2019-01-18T21:36:05.266Z,87.80
2019-01-18T21:39:17.546Z,88.90
2019-01-18T21:42:25.902Z,87.90
2019-01-18T21:45:23.429Z,87.90
2019-01-18T21:48:13.688Z,87.80
2019-01-18T21:51:14.085Z,87.80
2019-01-18T21:54:12.145Z,87.80
2019-01-18T21:57:23.535Z,88.20
2019-01-18T22:00:37.768Z,87.90
2019-01-18T22:03:38.818Z,88.40
2019-01-18T22:07:01.096Z,89.20
2019-01-18T22:09:39.243Z,89.80
2019-01-18T22:12:39.116Z,89.10
2019-01-18T22:15:32.559Z,87.70
2019-01-18T22:18:40.245Z,88.80
2019-01-18T22:21:43.773Z,88.20
2019-01-18T22:25:07.835Z,87.70
2019-01-18T22:28:10.454Z,88.10
2019-01-18T22:31:06.418Z,87.70
2019-01-18T22:34:14.292Z,87.60
2019-01-18T22:37:02.923Z,87.60
2019-01-18T22:40:16.961Z,87.70
2019-01-18T22:43:28.816Z,87.60
2019-01-18T22:47:02.577Z,87.60
2019-01-18T22:49:46.450Z,88.40
2019-01-18T22:52:55.513Z,88.30
2019-01-18T22:55:52.957Z,87.40
2019-01-18T22:59:07.547Z,87.80
2019-01-18T23:02:16.413Z,87.50
2019-01-18T23:05:24.012Z,87.40
2019-01-18T23:08:38.778Z,87.40
2019-01-18T23:11:27.085Z,87.40
2019-01-18T23:14:44.945Z,87.60
2019-01-18T23:17:39.908Z,87.30
2019-01-18T23:21:00.296Z,87.50
2019-01-18T23:24:04.233Z,87.40
2019-01-18T23:27:15.355Z,87.00
2019-01-18T23:30:10.422Z,87.30
2019-01-18T23:33:28.365Z,87.40
2019-01-18T23:36:12.842Z,87.30
2019-01-18T23:39:27.714Z,87.30
2019-01-18T23:43:07.170Z,87.60
2019-01-18T23:46:22.019Z,87.40
2019-01-18T23:49:14.660Z,86.60
2019-01-18T23:52:05.126Z,86.50
2019-01-18T23:55:21.511Z,87.50
2019-01-18T23:58:19.058Z,87.20
